sensor_id;sensor_type;location;lat;lon;timestamp;pressure;altitude;pressure_sealevel;temperature;humidity
61740;BME280;47645;45.288;12.038;2023-04-25T00:00:42;1008.6579656884059;;;12.5779296875;91.95101574319727
61740;BME280;47645;45.288;12.038;2023-04-25T00:10:43;1008.7377580728115;;;12.8224609375;82.86424377327208
61740;BME280;47645;45.288;12.038;2023-04-25T00:20:47;1008.7642266160188;;;12.6798828125;84.63793509682633
61740;BME280;47645;45.288;12.038;2023-04-25T00:30:44;1008.7064002974307;;;12.7306640625;82.95677364763479
61740;BME280;47645;45.288;12.038;2023-04-25T00:40:45;1008.608656752308;;;12.1650390625;97.6705460400688
61740;BME280;47645;45.288;12.038;2023-04-25T00:50:51;1008.4177004445316;;;12.129296875;99.984848182684
61740;BME280;47645;45.288;12.038;2023-04-25T01:00:48;1008.3436607948976;;;12.129296875;98.31989488362457
61740;BME280;47645;45.288;12.038;2023-04-25T01:10:48;1008.3362660146752;;;11.98671875;100
61740;BME280;47645;45.288;12.038;2023-04-25T01:20:50;1008.3285114728463;;;11.8388671875;97.5821439550163
61740;BME280;47645;45.288;12.038;2023-04-25T01:30:50;1008.3155193360478;;;11.818359375;100
61740;BME280;47645;45.288;12.038;2023-04-25T01:40:51;1008.1571863358784;;;12.00703125;88.9951162129206
61740;BME280;47645;45.288;12.038;2023-04-25T01:50:51;1008.0774467499455;;;11.6197265625;99.9124739526414
61740;BME280;47645;45.288;12.038;2023-04-25T02:00:52;1008.1047228683835;;;12.129296875;88.2317210859731
61740;BME280;47645;45.288;12.038;2023-04-25T02:10:53;1008.051927332701;;;11.91015625;92.63834307863979
61740;BME280;47645;45.288;12.038;2023-04-25T02:20:54;1008.007974143492;;;12.1802734375;87.6486311717163
61740;BME280;47645;45.288;12.038;2023-04-25T02:30:54;1007.6688697870509;;;12.108984375;91.80500435196397
61740;BME280;47645;45.288;12.038;2023-04-25T02:40:56;1007.3451188664008;;;12.45546875;85.92839995985419
61740;BME280;47645;45.288;12.038;2023-04-25T02:50:56;1007.5308371362974;;;12.430078125;84.97885487153039
61740;BME280;47645;45.288;12.038;2023-04-25T03:00:57;1008.1800405733945;;;12.2822265625;100
61740;BME280;47645;45.288;12.038;2023-04-25T03:10:59;1008.2778146264208;;;11.787890625;100
61740;BME280;47645;45.288;12.038;2023-04-25T03:20:59;1008.0612299569001;;;12.0478515625;100
61740;BME280;47645;45.288;12.038;2023-04-25T03:31:00;1008.0986442458385;;;12.2515625;100
61740;BME280;47645;45.288;12.038;2023-04-25T03:41:02;1007.8057991505473;;;12.1802734375;100
61740;BME280;47645;45.288;12.038;2023-04-25T03:51:01;1007.5195055813327;;;12.119140625;100
61740;BME280;47645;45.288;12.038;2023-04-25T04:01:04;1007.2582989949212;;;12.22109375;100
61740;BME280;47645;45.288;12.038;2023-04-25T04:11:03;1007.2825702213225;;;12.6390625;100
61740;BME280;47645;45.288;12.038;2023-04-25T04:21:04;1007.253065990148;;;12.771484375;100
61740;BME280;47645;45.288;12.038;2023-04-25T04:31:04;1007.211208447678;;;12.781640625;98.7465576886409
61740;BME280;47645;45.288;12.038;2023-04-25T04:41:06;1007.0329740545571;;;12.995703125;91.12223540273202
61740;BME280;47645;45.288;12.038;2023-04-25T04:51:06;1007.0715419750586;;;13.062109375;92.61474458099786
61740;BME280;47645;45.288;12.038;2023-04-25T05:01:08;1007.039261386087;;;13.1384765625;86.94317551579611
61740;BME280;47645;45.288;12.038;2023-04-25T05:11:08;1007.8907990501153;;;12.674609375;100
61740;BME280;47645;45.288;12.038;2023-04-25T05:21:09;1008.3928238328792;;;12.0833984375;100
61740;BME280;47645;45.288;12.038;2023-04-25T05:31:10;1008.0330110839409;;;12.460546875;100
61740;BME280;47645;45.288;12.038;2023-04-25T05:41:11;1007.854263643322;;;11.894921875;100
61740;BME280;47645;45.288;12.038;2023-04-25T05:51:11;1008.1411338935696;;;11.6603515625;100
61740;BME280;47645;45.288;12.038;2023-04-25T06:01:13;1008.1123404089763;;;11.5890625;100
61740;BME280;47645;45.288;12.038;2023-04-25T06:11:13;1008.1935204880243;;;11.7623046875;100
61740;BME280;47645;45.288;12.038;2023-04-25T06:21:14;1008.080831193359;;;11.7267578125;100
61740;BME280;47645;45.288;12.038;2023-04-25T06:31:15;1007.9302570823395;;;11.9662109375;100
61740;BME280;47645;45.288;12.038;2023-04-25T06:41:16;1007.9649989812709;;;12.0681640625;100
61740;BME280;47645;45.288;12.038;2023-04-25T06:51:16;1007.952245905855;;;11.8439453125;100
61740;BME280;47645;45.288;12.038;2023-04-25T07:01:17;1008.0638659078223;;;11.375;100
61740;BME280;47645;45.288;12.038;2023-04-25T07:11:18;1008.2050315946871;;;11.242578125;100
61740;BME280;47645;45.288;12.038;2023-04-25T07:21:19;1008.2414837827996;;;11.03359375;100
61740;BME280;47645;45.288;12.038;2023-04-25T07:31:20;1008.560095012594;;;11.0896484375;100
61740;BME280;47645;45.288;12.038;2023-04-25T07:41:21;1008.8324981789035;;;10.9978515625;100
61740;BME280;47645;45.288;12.038;2023-04-25T07:51:22;1008.6291675809196;;;10.962109375;100
61740;BME280;47645;45.288;12.038;2023-04-25T08:01:23;1008.7547011696032;;;11.1916015625;100
61740;BME280;47645;45.288;12.038;2023-04-25T08:11:24;1008.8946623633288;;;11.56875;100
61740;BME280;47645;45.288;12.038;2023-04-25T08:21:24;1009.3925754298963;;;11.5228515625;100
61740;BME280;47645;45.288;12.038;2023-04-25T08:31:25;1009.7199988940488;;;11.925390625;100
61740;BME280;47645;45.288;12.038;2023-04-25T08:41:26;1009.7985873095834;;;11.0029296875;100
61740;BME280;47645;45.288;12.038;2023-04-25T08:51:31;1009.7343617873635;;;10.7939453125;100
61740;BME280;47645;45.288;12.038;2023-04-25T09:01:27;1009.5038649027239;;;10.6869140625;100
61740;BME280;47645;45.288;12.038;2023-04-25T09:11:28;1009.3128318350304;;;10.921484375;100
61740;BME280;47645;45.288;12.038;2023-04-25T09:21:32;1009.3412720794738;;;11.1916015625;100
61740;BME280;47645;45.288;12.038;2023-04-25T09:31:33;1009.2277240928992;;;11.456640625;100
61740;BME280;47645;45.288;12.038;2023-04-25T09:41:30;1008.8860199185775;;;12.032421875;100
61740;BME280;47645;45.288;12.038;2023-04-25T09:51:32;1008.9557361387092;;;12.5982421875;99.09757513803987
61740;BME280;47645;45.288;12.038;2023-04-25T10:01:32;1008.725416359384;;;13.0263671875;99.65247905273712
61740;BME280;47645;45.288;12.038;2023-04-25T10:11:34;1008.7124717523993;;;13.617578125;94.7467866100815
61740;BME280;47645;45.288;12.038;2023-04-25T10:21:34;1008.7059933081262;;;14.035546875;95.92389488081531
61740;BME280;47645;45.288;12.038;2023-04-25T10:31:45;1008.6615170856489;;;14.6115234375;85.8526319339215
61740;BME280;47645;45.288;12.038;2023-04-25T10:41:46;1008.5745914607429;;;15.0244140625;84.82273341299357
61740;BME280;47645;45.288;12.038;2023-04-25T10:51:37;1008.5739605277403;;;15.6919921875;79.75349092319404
61740;BME280;47645;45.288;12.038;2023-04-25T11:01:39;1008.7274460447646;;;16.1916015625;70.8552961943748
61740;BME280;47645;45.288;12.038;2023-04-25T11:11:38;1009.0048600508416;;;16.7470703125;66.2600910452267
61740;BME280;47645;45.288;12.038;2023-04-25T11:21:39;1008.7382120270963;;;18.38828125;62.756280046252265
61740;BME280;47645;45.288;12.038;2023-04-25T11:31:43;1008.5940237631069;;;18.867578125;60.6671644125902
61740;BME280;47645;45.288;12.038;2023-04-25T11:41:41;1008.661867716607;;;19.606640625;56.500648931225946
61740;BME280;47645;45.288;12.038;2023-04-25T11:51:43;1008.81617773443;;;19.5607421875;52.47022701422127
61740;BME280;47645;45.288;12.038;2023-04-25T12:01:48;1008.7380111143143;;;19.2345703125;59.02233150070464
61740;BME280;47645;45.288;12.038;2023-04-25T12:11:46;1008.7054999827975;;;20.3251953125;51.427997465440725
61740;BME280;47645;45.288;12.038;2023-04-25T12:21:46;1008.6817416747571;;;20.2232421875;52.12301561714586
61740;BME280;47645;45.288;12.038;2023-04-25T12:31:47;1008.752426719705;;;20.3814453125;51.40656522906643
61740;BME280;47645;45.288;12.038;2023-04-25T12:41:49;1008.644312972458;;;21.0388671875;51.89343740632347
61740;BME280;47645;45.288;12.038;2023-04-25T12:51:49;1008.7024204325576;;;21.2734375;48.630223641797365
61740;BME280;47645;45.288;12.038;2023-04-25T13:01:50;1008.7098420718011;;;20.4375;48.61376667682184
61740;BME280;47645;45.288;12.038;2023-04-25T13:11:51;1008.820091279115;;;19.948046875;52.086959848493976
61740;BME280;47645;45.288;12.038;2023-04-25T13:21:52;1008.8106723694135;;;21.7779296875;51.264565311416824
61740;BME280;47645;45.288;12.038;2023-04-25T13:31:54;1008.7313530908526;;;20.35078125;54.24255820845615
61740;BME280;47645;45.288;12.038;2023-04-25T13:41:56;1008.6035067134284;;;20.7380859375;53.57389050492002
61740;BME280;47645;45.288;12.038;2023-04-25T13:51:56;1008.6717273077325;;;19.647265625;55.914598173380945
61740;BME280;47645;45.288;12.038;2023-04-25T14:01:58;1008.719846331561;;;20.957421875;58.27887125999461
61740;BME280;47645;45.288;12.038;2023-04-25T14:11:59;1008.8325042172695;;;21.0439453125;56.726213891275755
61740;BME280;47645;45.288;12.038;2023-04-25T14:22:00;1008.8253358153511;;;20.0705078125;60.866388788381116
61740;BME280;47645;45.288;12.038;2023-04-25T14:32:02;1008.8776050302123;;;19.85625;53.91256640098828
61740;BME280;47645;45.288;12.038;2023-04-25T14:42:03;1008.8347559725303;;;18.276171875;57.88886656197144
61740;BME280;47645;45.288;12.038;2023-04-25T14:52:04;1008.838586529921;;;19.815625;61.47966098357763
61740;BME280;47645;45.288;12.038;2023-04-25T15:02:05;1009.0584747111473;;;19.9072265625;60.642274305519365
61740;BME280;47645;45.288;12.038;2023-04-25T15:12:07;1009.0600658694327;;;19.74921875;60.708453565012974
61740;BME280;47645;45.288;12.038;2023-04-25T15:22:07;1009.0574068591658;;;19.3873046875;63.04262983389559
61740;BME280;47645;45.288;12.038;2023-04-25T15:32:08;1009.0860853387421;;;19.2396484375;60.79224835769175
61740;BME280;47645;45.288;12.038;2023-04-25T15:42:09;1009.0971729083894;;;18.4953125;64.04590668022507
61740;BME280;47645;45.288;12.038;2023-04-25T15:52:11;1009.240870994184;;;18.571875;64.69079964377259
61740;BME280;47645;45.288;12.038;2023-04-25T16:02:12;1009.3373969172944;;;18.0060546875;60.61446851033151
61740;BME280;47645;45.288;12.038;2023-04-25T16:12:13;1009.4101393296244;;;17.86328125;63.91418976838289
61740;BME280;47645;45.288;12.038;2023-04-25T16:22:16;1009.1772559411672;;;17.41484375;65.51958843811107
61740;BME280;47645;45.288;12.038;2023-04-25T16:32:15;1008.9785971094565;;;18.148828125;64.6559923662651
61740;BME280;47645;45.288;12.038;2023-04-25T16:42:16;1009.1604153727786;;;17.5626953125;60.00860465624615
61740;BME280;47645;45.288;12.038;2023-04-25T16:52:17;1008.8511692759747;;;18.0978515625;64.0176386536595
61740;BME280;47645;45.288;12.038;2023-04-25T17:02:18;1008.5897007682339;;;18.7146484375;62.4957636119652
61740;BME280;47645;45.288;12.038;2023-04-25T17:12:20;1008.4522896951495;;;18.475;63.33000344633347
61740;BME280;47645;45.288;12.038;2023-04-25T17:22:21;1008.6985431655207;;;18.27109375;64.82745648490739
61740;BME280;47645;45.288;12.038;2023-04-25T17:32:21;1008.8167909230032;;;18.0265625;66.14549048096586
61740;BME280;47645;45.288;12.038;2023-04-25T17:42:22;1008.9041884625955;;;17.3587890625;64.49259311022836
61740;BME280;47645;45.288;12.038;2023-04-25T17:52:24;1009.0745933415756;;;16.3392578125;67.63480755976951
61740;BME280;47645;45.288;12.038;2023-04-25T18:02:24;1008.9962787167301;;;16.3546875;72.67738388395279
61740;BME280;47645;45.288;12.038;2023-04-25T18:12:25;1009.0192214489585;;;16.1251953125;73.88141230697981
61740;BME280;47645;45.288;12.038;2023-04-25T18:22:27;1009.4082908596538;;;15.2587890625;75.83504745099431
61740;BME280;47645;45.288;12.038;2023-04-25T18:32:28;1009.7289247749417;;;15.309765625;77.17564485023027
61740;BME280;47645;45.288;12.038;2023-04-25T18:42:28;1009.8998525682957;;;14.3515625;78.77885480638598
61740;BME280;47645;45.288;12.038;2023-04-25T18:52:29;1010.0008505838202;;;14.453515625;78.8777306326176
61740;BME280;47645;45.288;12.038;2023-04-25T19:02:30;1010.0443133698874;;;14.5146484375;80.35501584587846
61740;BME280;47645;45.288;12.038;2023-04-25T19:12:33;1009.9084593239743;;;14.6369140625;78.98407723483827
61740;BME280;47645;45.288;12.038;2023-04-25T19:22:32;1009.9874921386992;;;14.3005859375;79.43939397675888
61740;BME280;47645;45.288;12.038;2023-04-25T19:32:33;1010.0839869403856;;;14.1578125;80.51194130698791
61740;BME280;47645;45.288;12.038;2023-04-25T19:42:34;1010.351566351586;;;13.908203125;81.23719151952275
61740;BME280;47645;45.288;12.038;2023-04-25T19:52:35;1010.4114799024051;;;13.7908203125;81.76169661361402
61740;BME280;47645;45.288;12.038;2023-04-25T20:02:36;1010.5638580675437;;;13.530859375;82.7415183171044
61740;BME280;47645;45.288;12.038;2023-04-25T20:12:37;1010.7922821433765;;;13.4748046875;82.55120239150732
61740;BME280;47645;45.288;12.038;2023-04-25T20:22:39;1010.72343472206;;;13.3220703125;82.65356198038987
61740;BME280;47645;45.288;12.038;2023-04-25T20:32:38;1010.7358991671863;;;13.27109375;82.41414058221724
61740;BME280;47645;45.288;12.038;2023-04-25T20:42:39;1010.763437561008;;;13.1130859375;82.47540720206868
61740;BME280;47645;45.288;12.038;2023-04-25T20:52:41;1010.9164829455373;;;12.9193359375;83.02958337052509
61740;BME280;47645;45.288;12.038;2023-04-25T21:02:41;1011.026534267845;;;12.9091796875;82.37136691664915
61740;BME280;47645;45.288;12.038;2023-04-25T21:12:43;1010.958560212087;;;12.8123046875;82.40780200542437
61740;BME280;47645;45.288;12.038;2023-04-25T21:22:49;1010.9692209001021;;;12.659375;82.97687346774292
61740;BME280;47645;45.288;12.038;2023-04-25T21:32:44;1011.0190691521208;;;12.5013671875;83.34447175890637
61740;BME280;47645;45.288;12.038;2023-04-25T21:42:46;1011.1848585919536;;;12.33828125;83.3394005300835
61740;BME280;47645;45.288;12.038;2023-04-25T21:52:45;1011.1964878795588;;;12.20078125;84.50956509857532
61740;BME280;47645;45.288;12.038;2023-04-25T22:02:46;1011.2349892036378;;;11.9814453125;85.63748301336622
61740;BME280;47645;45.288;12.038;2023-04-25T22:12:50;1011.2302303716299;;;11.9560546875;86.27757189629318
61740;BME280;47645;45.288;12.038;2023-04-25T22:22:47;1011.198796330826;;;11.915234375;85.76477186847141
61740;BME280;47645;45.288;12.038;2023-04-25T22:32:48;1011.2590006203521;;;11.6146484375;86.5526567097084
61740;BME280;47645;45.288;12.038;2023-04-25T22:42:49;1011.2403320234444;;;11.777734375;85.41994251382495
61740;BME280;47645;45.288;12.038;2023-04-25T22:52:49;1011.2853874427367;;;11.680859375;85.08850863303996
61740;BME280;47645;45.288;12.038;2023-04-25T23:02:50;1011.3321729266531;;;11.609375;86.60205136111574
61740;BME280;47645;45.288;12.038;2023-04-25T23:12:51;1011.3660016427806;;;11.5076171875;85.92980670814215
61740;BME280;47645;45.288;12.038;2023-04-25T23:22:52;1011.4564704082441;;;11.4158203125;85.75334059430818
61740;BME280;47645;45.288;12.038;2023-04-25T23:32:53;1011.5373760661729;;;11.3341796875;86.1106386980708
61740;BME280;47645;45.288;12.038;2023-04-25T23:42:54;1011.6349845111706;;;11.3392578125;85.15628735571325
61740;BME280;47645;45.288;12.038;2023-04-25T23:52:55;1011.7308805683548;;;11.278125;84.79459445791056
